sensor_id;sensor_type;location;lat;lon;timestamp;pressure;altitude;pressure_sealevel;temperature;humidity
73085;BME280;62974;49.460;10.892;2023-04-23T00:00:33;97099.69;;;15.37;70.87
73085;BME280;62974;49.460;10.892;2023-04-23T00:03:05;97098.06;;;15.36;71.23
73085;BME280;62974;49.460;10.892;2023-04-23T00:05:36;97095.59;;;15.18;72.10
73085;BME280;62974;49.460;10.892;2023-04-23T00:08:04;97090.78;;;15.20;72.17
73085;BME280;62974;49.460;10.892;2023-04-23T00:10:32;97092.31;;;15.33;70.65
73085;BME280;62974;49.460;10.892;2023-04-23T00:13:00;97093.22;;;15.05;73.33
73085;BME280;62974;49.460;10.892;2023-04-23T00:15:30;97088.50;;;14.95;74.21
73085;BME280;62974;49.460;10.892;2023-04-23T00:17:57;97088.41;;;15.07;72.57
73085;BME280;62974;49.460;10.892;2023-04-23T00:20:25;97086.44;;;15.19;73.05
73085;BME280;62974;49.460;10.892;2023-04-23T00:22:52;97074.56;;;15.20;71.34
73085;BME280;62974;49.460;10.892;2023-04-23T00:25:20;97093.44;;;14.13;83.81
73085;BME280;62974;49.460;10.892;2023-04-23T00:27:47;97083.72;;;15.02;72.41
73085;BME280;62974;49.460;10.892;2023-04-23T00:30:15;97086.34;;;15.14;73.24
73085;BME280;62974;49.460;10.892;2023-04-23T00:32:45;97104.84;;;15.05;74.64
73085;BME280;62974;49.460;10.892;2023-04-23T00:35:13;97101.84;;;15.02;73.95
73085;BME280;62974;49.460;10.892;2023-04-23T00:37:40;97108.44;;;14.78;76.29
73085;BME280;62974;49.460;10.892;2023-04-23T00:40:08;97098.91;;;15.03;72.41
73085;BME280;62974;49.460;10.892;2023-04-23T00:42:37;97100.19;;;15.01;72.83
73085;BME280;62974;49.460;10.892;2023-04-23T00:45:06;97105.88;;;14.54;76.54
73085;BME280;62974;49.460;10.892;2023-04-23T00:47:34;97100.03;;;14.46;76.73
73085;BME280;62974;49.460;10.892;2023-04-23T00:50:04;97100.25;;;14.56;76.72
73085;BME280;62974;49.460;10.892;2023-04-23T00:52:33;97096.72;;;13.76;80.94
73085;BME280;62974;49.460;10.892;2023-04-23T00:55:01;97092.13;;;14.56;75.51
73085;BME280;62974;49.460;10.892;2023-04-23T00:57:28;97083.38;;;14.09;79.13
73085;BME280;62974;49.460;10.892;2023-04-23T00:59:57;97074.91;;;14.45;76.15
73085;BME280;62974;49.460;10.892;2023-04-23T01:02:26;97080.41;;;14.50;75.50
73085;BME280;62974;49.460;10.892;2023-04-23T01:04:57;97073.03;;;14.46;75.24
73085;BME280;62974;49.460;10.892;2023-04-23T01:07:27;97069.47;;;14.74;73.17
73085;BME280;62974;49.460;10.892;2023-04-23T01:09:55;97073.91;;;14.80;73.33
73085;BME280;62974;49.460;10.892;2023-04-23T01:12:22;97066.63;;;14.80;71.93
73085;BME280;62974;49.460;10.892;2023-04-23T01:14:50;97080.53;;;14.16;80.34
73085;BME280;62974;49.460;10.892;2023-04-23T01:17:18;97077.31;;;14.58;74.62
73085;BME280;62974;49.460;10.892;2023-04-23T01:19:46;97070.88;;;14.76;72.76
73085;BME280;62974;49.460;10.892;2023-04-23T01:22:15;97074.81;;;14.69;74.43
73085;BME280;62974;49.460;10.892;2023-04-23T01:24:43;97081.91;;;14.75;73.83
73085;BME280;62974;49.460;10.892;2023-04-23T01:27:11;97078.38;;;14.74;72.65
73085;BME280;62974;49.460;10.892;2023-04-23T01:29:39;97079.22;;;14.75;71.36
73085;BME280;62974;49.460;10.892;2023-04-23T01:32:07;97080.53;;;14.72;72.27
73085;BME280;62974;49.460;10.892;2023-04-23T01:34:36;97087.25;;;14.41;76.87
73085;BME280;62974;49.460;10.892;2023-04-23T01:37:04;97084.19;;;14.66;73.02
73085;BME280;62974;49.460;10.892;2023-04-23T01:39:33;97079.19;;;14.58;74.85
73085;BME280;62974;49.460;10.892;2023-04-23T01:42:02;97081.00;;;14.69;72.73
73085;BME280;62974;49.460;10.892;2023-04-23T01:44:32;97089.25;;;14.06;79.27
73085;BME280;62974;49.460;10.892;2023-04-23T01:46:59;97080.50;;;14.55;73.69
73085;BME280;62974;49.460;10.892;2023-04-23T01:49:27;97079.78;;;14.60;72.90
73085;BME280;62974;49.460;10.892;2023-04-23T01:51:54;97083.88;;;14.63;72.93
73085;BME280;62974;49.460;10.892;2023-04-23T01:54:22;97089.44;;;14.56;72.65
73085;BME280;62974;49.460;10.892;2023-04-23T01:56:51;97087.56;;;14.56;72.57
73085;BME280;62974;49.460;10.892;2023-04-23T01:59:20;97087.56;;;14.56;72.48
73085;BME280;62974;49.460;10.892;2023-04-23T02:01:49;97093.41;;;14.53;73.44
73085;BME280;62974;49.460;10.892;2023-04-23T02:04:17;97096.94;;;14.54;73.01
73085;BME280;62974;49.460;10.892;2023-04-23T02:06:46;97102.50;;;14.47;73.58
73085;BME280;62974;49.460;10.892;2023-04-23T02:09:15;97107.97;;;14.36;76.07
73085;BME280;62974;49.460;10.892;2023-04-23T02:11:43;97099.59;;;14.37;75.02
73085;BME280;62974;49.460;10.892;2023-04-23T02:14:12;97100.69;;;14.36;73.90
73085;BME280;62974;49.460;10.892;2023-04-23T02:16:40;97097.28;;;14.41;72.67
73085;BME280;62974;49.460;10.892;2023-04-23T02:19:08;97096.19;;;14.42;72.70
73085;BME280;62974;49.460;10.892;2023-04-23T02:21:37;97101.03;;;14.40;72.87
73085;BME280;62974;49.460;10.892;2023-04-23T02:24:05;97098.31;;;14.40;72.00
73085;BME280;62974;49.460;10.892;2023-04-23T02:26:33;97109.75;;;14.19;75.84
73085;BME280;62974;49.460;10.892;2023-04-23T02:29:00;97098.22;;;14.35;72.53
73085;BME280;62974;49.460;10.892;2023-04-23T02:31:29;97103.38;;;14.36;72.35
73085;BME280;62974;49.460;10.892;2023-04-23T02:33:57;97103.81;;;14.33;73.13
73085;BME280;62974;49.460;10.892;2023-04-23T02:36:24;97100.31;;;14.33;73.59
73085;BME280;62974;49.460;10.892;2023-04-23T02:38:53;97111.88;;;14.17;75.07
73085;BME280;62974;49.460;10.892;2023-04-23T02:41:21;97107.34;;;14.34;72.63
73085;BME280;62974;49.460;10.892;2023-04-23T02:43:48;97127.00;;;14.18;75.96
73085;BME280;62974;49.460;10.892;2023-04-23T02:46:16;97122.91;;;14.15;75.34
73085;BME280;62974;49.460;10.892;2023-04-23T02:48:44;97125.50;;;14.10;76.19
73085;BME280;62974;49.460;10.892;2023-04-23T02:51:12;97121.19;;;14.09;75.86
73085;BME280;62974;49.460;10.892;2023-04-23T02:53:40;97115.31;;;14.12;74.39
73085;BME280;62974;49.460;10.892;2023-04-23T02:56:08;97120.09;;;14.10;74.89
73085;BME280;62974;49.460;10.892;2023-04-23T02:58:35;97130.38;;;13.96;76.25
73085;BME280;62974;49.460;10.892;2023-04-23T03:01:03;97133.22;;;13.78;77.18
73085;BME280;62974;49.460;10.892;2023-04-23T03:03:31;97132.22;;;12.91;82.16
73085;BME280;62974;49.460;10.892;2023-04-23T03:06:02;97133.75;;;12.46;83.96
73085;BME280;62974;49.460;10.892;2023-04-23T03:08:29;97135.59;;;12.75;82.77
73085;BME280;62974;49.460;10.892;2023-04-23T03:10:57;97137.44;;;12.75;84.04
73085;BME280;62974;49.460;10.892;2023-04-23T03:13:25;97143.59;;;12.52;83.05
73085;BME280;62974;49.460;10.892;2023-04-23T03:15:53;97145.81;;;12.55;84.26
73085;BME280;62974;49.460;10.892;2023-04-23T03:18:21;97142.59;;;12.64;82.77
73085;BME280;62974;49.460;10.892;2023-04-23T03:20:49;97141.56;;;12.77;83.11
73085;BME280;62974;49.460;10.892;2023-04-23T03:23:18;97150.00;;;13.22;79.63
73085;BME280;62974;49.460;10.892;2023-04-23T03:25:45;97147.53;;;13.21;79.84
73085;BME280;62974;49.460;10.892;2023-04-23T03:28:13;97149.06;;;13.63;76.77
73085;BME280;62974;49.460;10.892;2023-04-23T03:30:40;97155.16;;;13.35;78.20
73085;BME280;62974;49.460;10.892;2023-04-23T03:33:08;97156.47;;;13.33;78.84
73085;BME280;62974;49.460;10.892;2023-04-23T03:35:35;97167.28;;;13.03;80.26
73085;BME280;62974;49.460;10.892;2023-04-23T03:38:03;97173.06;;;12.17;85.25
73085;BME280;62974;49.460;10.892;2023-04-23T03:40:32;97174.78;;;12.11;86.12
73085;BME280;62974;49.460;10.892;2023-04-23T03:42:59;97163.81;;;12.43;84.29
73085;BME280;62974;49.460;10.892;2023-04-23T03:45:27;97169.03;;;12.08;87.01
73085;BME280;62974;49.460;10.892;2023-04-23T03:47:54;97170.94;;;12.37;86.66
73085;BME280;62974;49.460;10.892;2023-04-23T03:50:22;97161.56;;;11.92;87.95
73085;BME280;62974;49.460;10.892;2023-04-23T03:52:51;97169.97;;;12.32;86.87
73085;BME280;62974;49.460;10.892;2023-04-23T03:55:18;97156.69;;;13.20;80.47
73085;BME280;62974;49.460;10.892;2023-04-23T03:57:48;97160.19;;;13.20;79.56
73085;BME280;62974;49.460;10.892;2023-04-23T04:00:15;97167.06;;;13.04;81.83
73085;BME280;62974;49.460;10.892;2023-04-23T04:02:43;97162.47;;;12.93;82.00
73085;BME280;62974;49.460;10.892;2023-04-23T04:05:11;97152.38;;;12.89;82.75
73085;BME280;62974;49.460;10.892;2023-04-23T04:07:39;97155.28;;;13.17;80.36
73085;BME280;62974;49.460;10.892;2023-04-23T04:10:07;97155.56;;;12.97;81.41
73085;BME280;62974;49.460;10.892;2023-04-23T04:12:34;97159.03;;;12.86;82.72
73085;BME280;62974;49.460;10.892;2023-04-23T04:15:04;97156.84;;;12.95;82.42
73085;BME280;62974;49.460;10.892;2023-04-23T04:17:32;97165.06;;;12.70;84.48
73085;BME280;62974;49.460;10.892;2023-04-23T04:19:59;97162.13;;;13.01;82.39
73085;BME280;62974;49.460;10.892;2023-04-23T04:22:28;97170.31;;;12.53;85.36
73085;BME280;62974;49.460;10.892;2023-04-23T04:24:55;97172.72;;;12.43;86.27
73085;BME280;62974;49.460;10.892;2023-04-23T04:27:23;97181.97;;;12.17;88.98
73085;BME280;62974;49.460;10.892;2023-04-23T04:29:51;97179.59;;;12.57;86.26
73085;BME280;62974;49.460;10.892;2023-04-23T04:32:20;97171.50;;;12.57;85.91
73085;BME280;62974;49.460;10.892;2023-04-23T04:34:48;97184.91;;;12.46;87.17
73085;BME280;62974;49.460;10.892;2023-04-23T04:37:16;97186.88;;;12.68;85.28
73085;BME280;62974;49.460;10.892;2023-04-23T04:39:43;97180.84;;;12.85;84.07
73085;BME280;62974;49.460;10.892;2023-04-23T04:42:11;97191.75;;;12.60;84.91
73085;BME280;62974;49.460;10.892;2023-04-23T04:44:39;97184.94;;;12.87;83.95
73085;BME280;62974;49.460;10.892;2023-04-23T04:47:08;97183.94;;;13.00;83.20
73085;BME280;62974;49.460;10.892;2023-04-23T04:49:37;97187.41;;;12.89;83.40
73085;BME280;62974;49.460;10.892;2023-04-23T04:52:05;97182.97;;;12.94;83.21
73085;BME280;62974;49.460;10.892;2023-04-23T04:54:33;97185.38;;;13.14;82.16
73085;BME280;62974;49.460;10.892;2023-04-23T04:57:00;97184.28;;;13.03;82.41
73085;BME280;62974;49.460;10.892;2023-04-23T04:59:28;97201.47;;;12.91;83.91
73085;BME280;62974;49.460;10.892;2023-04-23T05:01:55;97195.63;;;12.94;83.77
73085;BME280;62974;49.460;10.892;2023-04-23T05:04:23;97204.84;;;12.86;84.37
73085;BME280;62974;49.460;10.892;2023-04-23T05:06:52;97203.22;;;12.85;85.02
73085;BME280;62974;49.460;10.892;2023-04-23T05:09:19;97203.50;;;12.65;86.07
73085;BME280;62974;49.460;10.892;2023-04-23T05:11:47;97201.38;;;12.97;83.46
73085;BME280;62974;49.460;10.892;2023-04-23T05:14:15;97193.19;;;13.04;83.45
73085;BME280;62974;49.460;10.892;2023-04-23T05:16:42;97193.66;;;13.01;83.42
73085;BME280;62974;49.460;10.892;2023-04-23T05:19:10;97196.47;;;13.06;83.24
73085;BME280;62974;49.460;10.892;2023-04-23T05:21:37;97205.47;;;13.00;83.69
73085;BME280;62974;49.460;10.892;2023-04-23T05:24:06;97206.94;;;12.54;88.00
73085;BME280;62974;49.460;10.892;2023-04-23T05:26:34;97213.03;;;12.80;86.33
73085;BME280;62974;49.460;10.892;2023-04-23T05:29:01;97211.06;;;12.87;85.01
73085;BME280;62974;49.460;10.892;2023-04-23T05:31:29;97206.84;;;12.91;84.78
73085;BME280;62974;49.460;10.892;2023-04-23T05:33:57;97204.41;;;12.89;84.36
73085;BME280;62974;49.460;10.892;2023-04-23T05:36:24;97202.63;;;12.83;86.60
73085;BME280;62974;49.460;10.892;2023-04-23T05:38:52;97203.50;;;13.07;83.96
73085;BME280;62974;49.460;10.892;2023-04-23T05:41:21;97210.22;;;12.86;86.81
73085;BME280;62974;49.460;10.892;2023-04-23T05:43:49;97207.47;;;12.93;86.30
73085;BME280;62974;49.460;10.892;2023-04-23T05:46:17;97209.56;;;12.91;86.31
73085;BME280;62974;49.460;10.892;2023-04-23T05:48:45;97215.22;;;12.71;88.45
73085;BME280;62974;49.460;10.892;2023-04-23T05:51:12;97226.19;;;12.88;88.04
73085;BME280;62974;49.460;10.892;2023-04-23T05:53:40;97221.19;;;13.03;86.14
73085;BME280;62974;49.460;10.892;2023-04-23T05:56:07;97231.06;;;13.09;85.91
73085;BME280;62974;49.460;10.892;2023-04-23T05:58:36;97232.28;;;13.13;85.18
73085;BME280;62974;49.460;10.892;2023-04-23T06:01:04;97234.66;;;13.03;86.17
73085;BME280;62974;49.460;10.892;2023-04-23T06:03:34;97239.16;;;13.09;86.83
73085;BME280;62974;49.460;10.892;2023-04-23T06:06:03;97229.16;;;13.28;83.98
73085;BME280;62974;49.460;10.892;2023-04-23T06:08:30;97240.94;;;13.15;86.63
73085;BME280;62974;49.460;10.892;2023-04-23T06:10:58;97253.78;;;13.01;86.32
73085;BME280;62974;49.460;10.892;2023-04-23T06:13:27;97244.06;;;12.82;88.63
73085;BME280;62974;49.460;10.892;2023-04-23T06:15:57;97244.75;;;12.48;92.69
73085;BME280;62974;49.460;10.892;2023-04-23T06:18:25;97241.69;;;12.74;91.53
73085;BME280;62974;49.460;10.892;2023-04-23T06:20:55;97243.22;;;13.00;87.46
73085;BME280;62974;49.460;10.892;2023-04-23T06:23:24;97241.16;;;12.84;88.56
73085;BME280;62974;49.460;10.892;2023-04-23T06:25:51;97229.03;;;12.93;87.33
73085;BME280;62974;49.460;10.892;2023-04-23T06:28:20;97234.31;;;12.99;86.61
73085;BME280;62974;49.460;10.892;2023-04-23T06:30:47;97230.44;;;12.95;86.38
73085;BME280;62974;49.460;10.892;2023-04-23T06:33:16;97228.44;;;13.02;85.96
73085;BME280;62974;49.460;10.892;2023-04-23T06:35:44;97235.94;;;12.70;89.10
73085;BME280;62974;49.460;10.892;2023-04-23T06:38:13;97217.72;;;13.14;84.83
73085;BME280;62974;49.460;10.892;2023-04-23T06:40:41;97231.16;;;13.02;87.35
73085;BME280;62974;49.460;10.892;2023-04-23T06:43:08;97233.13;;;12.95;88.44
73085;BME280;62974;49.460;10.892;2023-04-23T06:45:36;97228.34;;;12.97;88.09
73085;BME280;62974;49.460;10.892;2023-04-23T06:48:03;97216.34;;;13.23;85.55
73085;BME280;62974;49.460;10.892;2023-04-23T06:50:32;97215.31;;;13.36;83.40
73085;BME280;62974;49.460;10.892;2023-04-23T06:53:00;97225.50;;;13.34;84.21
73085;BME280;62974;49.460;10.892;2023-04-23T06:55:27;97220.00;;;13.29;83.85
73085;BME280;62974;49.460;10.892;2023-04-23T06:57:55;97227.28;;;13.28;85.13
73085;BME280;62974;49.460;10.892;2023-04-23T07:00:23;97226.06;;;13.12;86.25
73085;BME280;62974;49.460;10.892;2023-04-23T07:02:51;97226.66;;;13.26;85.27
73085;BME280;62974;49.460;10.892;2023-04-23T07:05:18;97229.19;;;13.09;87.60
73085;BME280;62974;49.460;10.892;2023-04-23T07:07:47;97215.63;;;13.16;86.40
73085;BME280;62974;49.460;10.892;2023-04-23T07:10:15;97224.63;;;13.10;86.75
73085;BME280;62974;49.460;10.892;2023-04-23T07:12:43;97224.56;;;12.98;88.09
73085;BME280;62974;49.460;10.892;2023-04-23T07:15:10;97219.53;;;13.32;84.15
73085;BME280;62974;49.460;10.892;2023-04-23T07:17:38;97227.59;;;12.90;88.14
73085;BME280;62974;49.460;10.892;2023-04-23T07:20:07;97223.59;;;13.11;86.96
73085;BME280;62974;49.460;10.892;2023-04-23T07:22:35;97219.03;;;13.23;86.13
73085;BME280;62974;49.460;10.892;2023-04-23T07:25:04;97212.00;;;13.22;84.89
73085;BME280;62974;49.460;10.892;2023-04-23T07:27:33;97223.63;;;13.23;86.18
73085;BME280;62974;49.460;10.892;2023-04-23T07:30:01;97226.91;;;13.13;87.31
73085;BME280;62974;49.460;10.892;2023-04-23T07:32:30;97225.03;;;13.13;87.05
73085;BME280;62974;49.460;10.892;2023-04-23T07:34:58;97222.13;;;12.97;89.71
73085;BME280;62974;49.460;10.892;2023-04-23T07:37:25;97216.13;;;13.25;87.94
73085;BME280;62974;49.460;10.892;2023-04-23T07:39:53;97209.94;;;13.59;85.36
73085;BME280;62974;49.460;10.892;2023-04-23T07:42:22;97197.63;;;13.75;86.14
73085;BME280;62974;49.460;10.892;2023-04-23T07:44:49;97197.16;;;13.66;86.05
73085;BME280;62974;49.460;10.892;2023-04-23T07:47:17;97207.94;;;13.54;86.46
73085;BME280;62974;49.460;10.892;2023-04-23T07:49:44;97203.38;;;13.43;86.02
73085;BME280;62974;49.460;10.892;2023-04-23T07:52:12;97193.75;;;13.36;84.46
73085;BME280;62974;49.460;10.892;2023-04-23T07:54:40;97201.00;;;13.35;83.58
73085;BME280;62974;49.460;10.892;2023-04-23T07:57:08;97205.53;;;13.11;84.92
73085;BME280;62974;49.460;10.892;2023-04-23T07:59:38;97214.59;;;12.87;87.53
73085;BME280;62974;49.460;10.892;2023-04-23T08:02:05;97224.06;;;11.94;90.79
73085;BME280;62974;49.460;10.892;2023-04-23T08:04:33;97221.44;;;12.05;92.26
73085;BME280;62974;49.460;10.892;2023-04-23T08:07:01;97217.63;;;12.13;91.67
73085;BME280;62974;49.460;10.892;2023-04-23T08:09:28;97211.75;;;11.80;92.69
73085;BME280;62974;49.460;10.892;2023-04-23T08:11:56;97216.09;;;11.81;92.47
73085;BME280;62974;49.460;10.892;2023-04-23T08:14:23;97214.91;;;11.95;92.17
73085;BME280;62974;49.460;10.892;2023-04-23T08:16:52;97217.00;;;11.50;93.03
73085;BME280;62974;49.460;10.892;2023-04-23T08:19:20;97209.75;;;11.75;92.21
73085;BME280;62974;49.460;10.892;2023-04-23T08:21:47;97204.84;;;11.65;91.40
73085;BME280;62974;49.460;10.892;2023-04-23T08:24:15;97209.25;;;11.85;91.25
73085;BME280;62974;49.460;10.892;2023-04-23T08:26:43;97205.63;;;11.91;91.09
73085;BME280;62974;49.460;10.892;2023-04-23T08:29:11;97210.31;;;12.02;88.11
73085;BME280;62974;49.460;10.892;2023-04-23T08:31:39;97198.03;;;12.06;87.70
73085;BME280;62974;49.460;10.892;2023-04-23T08:34:08;97196.63;;;12.69;85.70
73085;BME280;62974;49.460;10.892;2023-04-23T08:36:35;97184.59;;;13.25;81.90
73085;BME280;62974;49.460;10.892;2023-04-23T08:39:03;97193.72;;;12.83;85.60
73085;BME280;62974;49.460;10.892;2023-04-23T08:41:33;97185.88;;;12.81;82.94
73085;BME280;62974;49.460;10.892;2023-04-23T08:44:06;97187.78;;;12.92;82.20
73085;BME280;62974;49.460;10.892;2023-04-23T08:46:41;97185.97;;;13.16;79.47
73085;BME280;62974;49.460;10.892;2023-04-23T08:49:13;97190.34;;;13.17;79.63
73085;BME280;62974;49.460;10.892;2023-04-23T08:51:45;97183.16;;;13.11;77.06
73085;BME280;62974;49.460;10.892;2023-04-23T08:54:18;97185.91;;;13.69;77.16
73085;BME280;62974;49.460;10.892;2023-04-23T08:56:48;97177.00;;;13.45;75.55
73085;BME280;62974;49.460;10.892;2023-04-23T08:59:17;97183.03;;;14.10;76.09
73085;BME280;62974;49.460;10.892;2023-04-23T09:01:46;97178.09;;;14.19;74.94
73085;BME280;62974;49.460;10.892;2023-04-23T09:04:18;97185.13;;;14.72;75.21
73085;BME280;62974;49.460;10.892;2023-04-23T09:06:46;97179.72;;;14.32;74.80
73085;BME280;62974;49.460;10.892;2023-04-23T09:09:14;97170.69;;;14.15;73.61
73085;BME280;62974;49.460;10.892;2023-04-23T09:11:42;97176.44;;;14.18;75.22
73085;BME280;62974;49.460;10.892;2023-04-23T09:14:11;97174.25;;;14.03;75.55
73085;BME280;62974;49.460;10.892;2023-04-23T09:16:39;97177.41;;;14.12;75.79
73085;BME280;62974;49.460;10.892;2023-04-23T09:19:08;97163.72;;;14.30;75.38
73085;BME280;62974;49.460;10.892;2023-04-23T09:21:38;97175.94;;;14.44;75.59
73085;BME280;62974;49.460;10.892;2023-04-23T09:24:08;97161.63;;;14.44;74.30
73085;BME280;62974;49.460;10.892;2023-04-23T09:26:43;97165.38;;;14.43;75.50
73085;BME280;62974;49.460;10.892;2023-04-23T09:29:12;97157.25;;;14.43;75.08
73085;BME280;62974;49.460;10.892;2023-04-23T09:31:42;97155.56;;;14.82;74.91
73085;BME280;62974;49.460;10.892;2023-04-23T09:34:10;97155.22;;;14.78;74.54
73085;BME280;62974;49.460;10.892;2023-04-23T09:36:39;97156.78;;;14.74;75.41
73085;BME280;62974;49.460;10.892;2023-04-23T09:39:11;97146.88;;;14.80;75.09
73085;BME280;62974;49.460;10.892;2023-04-23T09:41:38;97147.00;;;14.73;75.35
73085;BME280;62974;49.460;10.892;2023-04-23T09:44:06;97149.44;;;14.86;75.10
73085;BME280;62974;49.460;10.892;2023-04-23T09:46:35;97141.16;;;14.93;75.33
73085;BME280;62974;49.460;10.892;2023-04-23T09:49:05;97138.28;;;14.83;75.37
73085;BME280;62974;49.460;10.892;2023-04-23T09:51:35;97149.25;;;14.76;75.17
73085;BME280;62974;49.460;10.892;2023-04-23T09:54:07;97133.47;;;14.85;74.71
73085;BME280;62974;49.460;10.892;2023-04-23T09:56:36;97135.28;;;14.96;74.82
73085;BME280;62974;49.460;10.892;2023-04-23T09:59:18;97132.97;;;14.88;72.91
73085;BME280;62974;49.460;10.892;2023-04-23T10:01:55;97136.63;;;14.82;71.74
73085;BME280;62974;49.460;10.892;2023-04-23T10:04:23;97122.56;;;14.80;70.86
73085;BME280;62974;49.460;10.892;2023-04-23T10:06:53;97135.00;;;14.81;72.12
73085;BME280;62974;49.460;10.892;2023-04-23T10:09:25;97134.69;;;14.94;71.70
73085;BME280;62974;49.460;10.892;2023-04-23T10:11:54;97132.63;;;15.01;72.09
73085;BME280;62974;49.460;10.892;2023-04-23T10:14:24;97133.66;;;15.28;72.39
73085;BME280;62974;49.460;10.892;2023-04-23T10:16:57;97127.41;;;15.28;72.02
73085;BME280;62974;49.460;10.892;2023-04-23T10:19:26;97124.13;;;15.26;71.55
73085;BME280;62974;49.460;10.892;2023-04-23T10:21:56;97120.69;;;15.30;71.40
73085;BME280;62974;49.460;10.892;2023-04-23T10:24:31;97124.88;;;15.04;72.15
73085;BME280;62974;49.460;10.892;2023-04-23T10:27:00;97118.28;;;15.17;71.91
73085;BME280;62974;49.460;10.892;2023-04-23T10:29:30;97123.38;;;15.30;71.61
73085;BME280;62974;49.460;10.892;2023-04-23T10:31:59;97122.97;;;15.22;71.76
73085;BME280;62974;49.460;10.892;2023-04-23T10:34:28;97118.88;;;15.19;71.75
73085;BME280;62974;49.460;10.892;2023-04-23T10:36:58;97118.25;;;15.12;71.31
73085;BME280;62974;49.460;10.892;2023-04-23T10:39:27;97128.31;;;15.17;72.06
73085;BME280;62974;49.460;10.892;2023-04-23T10:41:58;97113.72;;;15.18;71.36
73085;BME280;62974;49.460;10.892;2023-04-23T10:44:32;97106.41;;;15.35;71.00
73085;BME280;62974;49.460;10.892;2023-04-23T10:47:20;97099.97;;;15.53;69.85
73085;BME280;62974;49.460;10.892;2023-04-23T10:49:48;97102.13;;;15.72;69.96
73085;BME280;62974;49.460;10.892;2023-04-23T10:52:17;97099.22;;;15.79;69.98
73085;BME280;62974;49.460;10.892;2023-04-23T10:55:16;97089.22;;;15.79;69.78
73085;BME280;62974;49.460;10.892;2023-04-23T10:57:59;97089.91;;;15.91;69.26
73085;BME280;62974;49.460;10.892;2023-04-23T11:00:41;97092.06;;;16.11;68.70
73085;BME280;62974;49.460;10.892;2023-04-23T11:03:30;97084.66;;;16.28;66.57
73085;BME280;62974;49.460;10.892;2023-04-23T11:06:02;97083.63;;;16.08;65.46
73085;BME280;62974;49.460;10.892;2023-04-23T11:08:30;97082.59;;;16.14;65.28
73085;BME280;62974;49.460;10.892;2023-04-23T11:10:59;97081.09;;;16.50;63.53
73085;BME280;62974;49.460;10.892;2023-04-23T11:13:29;97067.28;;;16.51;62.93
73085;BME280;62974;49.460;10.892;2023-04-23T11:16:13;97067.75;;;16.70;60.96
73085;BME280;62974;49.460;10.892;2023-04-23T11:18:57;97063.22;;;16.75;62.93
73085;BME280;62974;49.460;10.892;2023-04-23T11:21:55;97058.81;;;16.42;60.70
73085;BME280;62974;49.460;10.892;2023-04-23T11:24:23;97058.47;;;16.61;62.80
73085;BME280;62974;49.460;10.892;2023-04-23T11:26:50;97049.31;;;16.67;62.12
73085;BME280;62974;49.460;10.892;2023-04-23T11:29:22;97056.75;;;16.55;62.39
73085;BME280;62974;49.460;10.892;2023-04-23T11:31:50;97042.53;;;16.42;60.29
73085;BME280;62974;49.460;10.892;2023-04-23T11:34:28;97041.72;;;16.42;62.47
73085;BME280;62974;49.460;10.892;2023-04-23T11:36:57;97050.75;;;16.26;62.74
73085;BME280;62974;49.460;10.892;2023-04-23T11:39:25;97052.66;;;16.25;62.16
73085;BME280;62974;49.460;10.892;2023-04-23T11:41:53;97031.03;;;16.04;60.47
73085;BME280;62974;49.460;10.892;2023-04-23T11:44:23;97030.06;;;15.93;61.40
73085;BME280;62974;49.460;10.892;2023-04-23T11:46:51;97026.97;;;16.33;60.78
73085;BME280;62974;49.460;10.892;2023-04-23T11:49:19;97017.78;;;16.34;61.12
73085;BME280;62974;49.460;10.892;2023-04-23T11:51:47;97013.94;;;16.30;60.53
73085;BME280;62974;49.460;10.892;2023-04-23T11:54:15;97016.56;;;16.47;61.91
73085;BME280;62974;49.460;10.892;2023-04-23T11:56:42;97014.84;;;16.40;61.35
73085;BME280;62974;49.460;10.892;2023-04-23T11:59:10;97005.06;;;16.34;61.30
73085;BME280;62974;49.460;10.892;2023-04-23T12:01:41;97004.91;;;16.46;60.07
73085;BME280;62974;49.460;10.892;2023-04-23T12:04:12;97016.41;;;16.31;61.96
73085;BME280;62974;49.460;10.892;2023-04-23T12:06:41;97014.19;;;16.28;62.70
73085;BME280;62974;49.460;10.892;2023-04-23T12:09:09;97004.47;;;16.32;61.79
73085;BME280;62974;49.460;10.892;2023-04-23T12:11:38;96997.44;;;16.31;61.23
73085;BME280;62974;49.460;10.892;2023-04-23T12:14:07;96991.56;;;16.13;60.96
73085;BME280;62974;49.460;10.892;2023-04-23T12:16:37;96995.59;;;16.10;63.06
73085;BME280;62974;49.460;10.892;2023-04-23T12:19:11;96987.06;;;16.23;63.21
73085;BME280;62974;49.460;10.892;2023-04-23T12:21:52;96989.44;;;16.15;63.49
73085;BME280;62974;49.460;10.892;2023-04-23T12:24:21;96997.19;;;16.06;64.02
73085;BME280;62974;49.460;10.892;2023-04-23T12:26:50;96993.09;;;16.04;63.88
73085;BME280;62974;49.460;10.892;2023-04-23T12:29:20;96986.25;;;16.23;63.13
73085;BME280;62974;49.460;10.892;2023-04-23T12:31:49;96986.97;;;16.13;64.88
73085;BME280;62974;49.460;10.892;2023-04-23T12:34:19;96990.78;;;16.17;64.47
73085;BME280;62974;49.460;10.892;2023-04-23T12:36:48;96987.06;;;16.23;64.18
73085;BME280;62974;49.460;10.892;2023-04-23T12:39:22;96985.22;;;16.29;63.75
73085;BME280;62974;49.460;10.892;2023-04-23T12:41:50;96989.25;;;16.26;64.65
73085;BME280;62974;49.460;10.892;2023-04-23T12:44:19;96981.59;;;16.18;64.45
73085;BME280;62974;49.460;10.892;2023-04-23T12:46:48;96977.31;;;15.95;62.87
73085;BME280;62974;49.460;10.892;2023-04-23T12:49:16;96979.50;;;15.98;64.32
73085;BME280;62974;49.460;10.892;2023-04-23T12:51:45;96979.81;;;16.02;64.93
73085;BME280;62974;49.460;10.892;2023-04-23T12:54:12;96978.91;;;15.96;64.04
73085;BME280;62974;49.460;10.892;2023-04-23T12:56:40;96977.78;;;15.92;63.52
73085;BME280;62974;49.460;10.892;2023-04-23T12:59:07;96976.22;;;15.96;63.27